Time;durP1;ratioP1;P1;durP2;ratioP2;P2;SDS_P1;SDS_P2;PMS_P1;PMS_P2;Temp;Humidity;BMP_temperature;BMP_pressure;BME280_temperature;BME280_humidity;BME280_pressure;Samples;Min_cycle;Max_cycle;Signal;HPM_P1;HPM_P2
2023/10/23 00:00:39;;;;;;;1.63;0.90;;;13.30;99.90;;;13.38;100.00;100737.28;5220034;28;20067;-49
2023/10/23 00:03:14;;;;;;;1.05;0.68;;;13.30;99.90;;;13.38;100.00;100738.19;5208688;28;20073;-49
2023/10/23 00:05:46;;;;;;;2.55;1.00;;;13.30;99.90;;;13.39;100.00;100733.81;5212567;28;20044;-48
2023/10/23 00:08:19;;;;;;;1.25;0.82;;;13.30;99.90;;;13.40;100.00;100735.59;5221115;28;20091;-47
2023/10/23 00:10:52;;;;;;;1.23;0.82;;;13.30;99.90;;;13.40;100.00;100740.81;5213533;28;20049;-48
2023/10/23 00:13:28;;;;;;;2.03;1.02;;;13.30;99.90;;;13.39;100.00;100742.56;5219014;28;20045;-48
2023/10/23 00:16:00;;;;;;;1.42;0.95;;;13.20;99.90;;;13.41;100.00;100737.34;5219372;28;20049;-48
2023/10/23 00:18:33;;;;;;;1.25;0.85;;;13.30;99.90;;;13.41;100.00;100734.72;5220238;28;20041;-48
2023/10/23 00:21:05;;;;;;;2.13;1.20;;;13.30;99.90;;;13.40;100.00;100730.34;5217056;28;20048;-48
2023/10/23 00:23:37;;;;;;;2.53;1.13;;;13.30;99.90;;;13.39;100.00;100733.81;5218877;28;20044;-48
2023/10/23 00:26:11;;;;;;;1.60;1.00;;;13.30;99.90;;;13.36;100.00;100742.47;5214588;28;20405;-48
2023/10/23 00:28:49;;;;;;;1.92;1.00;;;13.30;99.90;;;13.34;100.00;100743.28;5214662;28;20160;-49
2023/10/23 00:31:25;;;;;;;1.88;1.00;;;13.30;99.90;;;13.35;100.00;100747.69;5217974;28;20471;-48
2023/10/23 00:33:57;;;;;;;1.52;1.20;;;13.20;99.90;;;13.31;100.00;100744.13;5218300;28;20049;-49
2023/10/23 00:36:29;;;;;;;2.28;1.30;;;13.20;99.90;;;13.31;100.00;100749.38;5221188;28;20060;-48
2023/10/23 00:39:02;;;;;;;1.88;1.02;;;13.20;99.90;;;13.29;100.00;100751.91;5218908;28;20052;-48
2023/10/23 00:41:39;;;;;;;1.50;1.27;;;13.20;99.90;;;13.28;100.00;100752.78;5217800;28;20135;-49
2023/10/23 00:44:12;;;;;;;1.98;1.02;;;13.20;99.90;;;13.28;100.00;100750.16;5216507;28;20057;-48
2023/10/23 00:46:45;;;;;;;1.60;0.95;;;13.20;99.90;;;13.27;100.00;100745.78;5213125;28;20564;-49
2023/10/23 00:49:18;;;;;;;1.70;1.10;;;13.20;99.90;;;13.26;100.00;100753.59;5216574;28;20404;-47
2023/10/23 00:51:52;;;;;;;1.50;0.88;;;13.20;99.90;;;13.25;100.00;100747.47;5197250;28;20103;-48
2023/10/23 00:54:25;;;;;;;1.33;1.02;;;13.20;99.90;;;13.23;100.00;100754.41;5223309;28;20052;-48
2023/10/23 00:56:59;;;;;;;1.73;1.00;;;13.10;99.90;;;13.16;100.00;100762.91;5216251;28;20136;-48
2023/10/23 00:59:32;;;;;;;1.50;0.93;;;13.10;99.90;;;13.11;100.00;100754.09;5219928;28;20048;-47
2023/10/23 01:02:05;;;;;;;1.63;0.95;;;13.00;99.90;;;13.06;100.00;100750.47;5214028;28;20063;-48
2023/10/23 01:04:39;;;;;;;1.70;1.00;;;13.00;99.90;;;13.01;100.00;100747.75;5217110;28;20048;-50
2023/10/23 01:07:11;;;;;;;1.05;0.80;;;13.00;99.90;;;12.96;100.00;100744.13;5217821;28;20464;-48
2023/10/23 01:09:43;;;;;;;1.95;0.90;;;12.90;99.90;;;12.92;100.00;100754.50;5213990;28;20059;-48
2023/10/23 01:12:17;;;;;;;0.95;0.80;;;12.80;99.90;;;12.88;100.00;100752.66;5221520;28;20396;-48
2023/10/23 01:14:50;;;;;;;1.13;0.77;;;12.80;99.90;;;12.84;100.00;100745.56;5220219;28;20404;-48
2023/10/23 01:17:22;;;;;;;1.40;0.93;;;12.80;99.90;;;12.80;100.00;100749.84;5217069;28;20051;-48
2023/10/23 01:19:55;;;;;;;1.08;0.80;;;12.70;99.90;;;12.79;100.00;100755.03;5218915;28;20041;-49
2023/10/23 01:22:27;;;;;;;1.45;1.10;;;12.70;99.90;;;12.76;100.00;100751.47;5216527;28;20036;-49
2023/10/23 01:25:01;;;;;;;1.38;0.90;;;12.70;99.90;;;12.74;100.00;100747.06;5221938;28;20740;-48
2023/10/23 01:27:37;;;;;;;1.25;0.80;;;12.70;99.90;;;12.73;100.00;100750.53;5216963;28;20049;-48
2023/10/23 01:30:11;;;;;;;0.95;0.80;;;12.60;99.90;;;12.70;100.00;100743.47;5216924;28;20508;-48
2023/10/23 01:32:43;;;;;;;1.27;0.85;;;12.60;99.90;;;12.68;100.00;100737.34;5220990;28;20443;-47
2023/10/23 01:35:15;;;;;;;1.30;0.70;;;12.60;99.90;;;12.66;100.00;100739.03;5218232;28;20416;-48
2023/10/23 01:37:48;;;;;;;1.20;0.93;;;12.60;99.90;;;12.63;100.00;100744.16;5212855;28;20050;-47
2023/10/23 01:40:21;;;;;;;1.58;0.70;;;12.60;99.90;;;12.59;100.00;100744.97;5217925;28;20435;-49
2023/10/23 01:42:55;;;;;;;1.15;0.90;;;12.50;99.90;;;12.55;100.00;100739.59;5222754;28;20497;-47
2023/10/23 01:45:28;;;;;;;0.60;0.60;;;12.50;99.90;;;12.51;100.00;100749.06;5223490;28;20051;-48
2023/10/23 01:48:00;;;;;;;1.08;0.93;;;12.40;99.90;;;12.47;100.00;100747.25;5219465;28;20045;-48
2023/10/23 01:50:33;;;;;;;1.13;0.77;;;12.40;99.90;;;12.41;100.00;100747.09;5222633;28;20053;-48
2023/10/23 01:53:05;;;;;;;1.17;0.80;;;12.30;99.90;;;12.38;100.00;100753.09;5220786;28;20041;-49
2023/10/23 01:55:37;;;;;;;0.73;0.68;;;12.30;99.90;;;12.37;100.00;100751.34;5211627;28;20103;-49
2023/10/23 01:58:12;;;;;;;0.82;0.82;;;12.30;99.90;;;12.34;100.00;100760.84;5224281;28;20041;-48
2023/10/23 02:00:44;;;;;;;1.63;0.90;;;12.20;99.90;;;12.32;100.00;100767.72;5227283;28;20049;-48
2023/10/23 02:03:16;;;;;;;1.42;0.68;;;12.20;99.90;;;12.30;100.00;100761.59;5220410;28;20474;-48
2023/10/23 02:05:49;;;;;;;1.33;0.80;;;12.20;99.90;;;12.26;100.00;100763.25;5217353;28;20074;-48
2023/10/23 02:08:23;;;;;;;0.93;0.90;;;12.20;99.90;;;12.22;100.00;100764.88;5227637;28;20060;-48
2023/10/23 02:10:56;;;;;;;0.90;0.80;;;12.20;99.90;;;12.22;100.00;100762.25;5223468;28;20049;-48
2023/10/23 02:13:33;;;;;;;1.02;0.70;;;12.20;99.90;;;12.22;100.00;100762.25;5219362;28;20060;-47
2023/10/23 02:16:06;;;;;;;1.30;0.73;;;12.20;99.90;;;12.20;100.00;100763.97;5220885;28;20049;-48
2023/10/23 02:18:38;;;;;;;1.05;0.73;;;12.10;99.90;;;12.20;100.00;100769.19;5227648;28;20052;-48
2023/10/23 02:21:11;;;;;;;0.93;0.82;;;12.10;99.90;;;12.19;100.00;100762.19;5218830;28;20048;-48
2023/10/23 02:23:43;;;;;;;2.75;0.98;;;12.20;99.90;;;12.20;100.00;100770.91;5218156;28;20041;-48
2023/10/23 02:26:15;;;;;;;0.95;0.85;;;12.20;99.90;;;12.19;100.00;100762.19;5219810;28;20144;-48
2023/10/23 02:28:49;;;;;;;1.35;1.00;;;12.20;99.90;;;12.17;100.00;100773.44;5223840;28;20059;-48
2023/10/23 02:31:22;;;;;;;1.45;0.93;;;12.10;99.90;;;12.14;100.00;100769.00;5216304;28;20521;-48
2023/10/23 02:33:54;;;;;;;1.38;1.05;;;12.10;99.90;;;12.10;100.00;100767.16;5228361;28;20068;-48
2023/10/23 02:36:27;;;;;;;1.50;1.10;;;12.10;99.90;;;12.06;100.00;100760.09;5230970;28;20059;-48
2023/10/23 02:38:59;;;;;;;1.20;1.05;;;12.00;99.90;;;12.03;100.00;100753.88;5223557;28;20044;-49
2023/10/23 02:41:32;;;;;;;3.08;1.08;;;12.00;99.90;;;12.02;100.00;100763.44;5225457;28;20041;-47
2023/10/23 02:44:06;;;;;;;1.15;0.93;;;12.00;99.90;;;12.02;100.00;100757.34;5223675;28;20049;-47
2023/10/23 02:46:38;;;;;;;1.65;0.93;;;12.00;99.90;;;11.99;100.00;100768.56;5221186;28;20045;-47
2023/10/23 02:49:11;;;;;;;1.85;0.90;;;11.90;99.90;;;11.96;100.00;100768.50;5220565;28;20435;-48
2023/10/23 02:51:43;;;;;;;1.20;0.98;;;11.90;99.90;;;11.90;100.00;100771.81;5230903;28;20111;-47
2023/10/23 02:54:16;;;;;;;1.98;0.98;;;11.90;99.90;;;11.83;100.00;100771.59;5223686;28;20037;-47
2023/10/23 02:56:48;;;;;;;1.75;0.88;;;11.80;99.90;;;11.75;100.00;100762.63;5221863;28;20052;-48
2023/10/23 02:59:22;;;;;;;1.55;0.90;;;11.70;99.90;;;11.67;100.00;100759.75;5224928;28;20408;-49
2023/10/23 03:01:55;;;;;;;1.17;0.98;;;11.60;99.90;;;11.63;100.00;100764.00;5220208;28;20147;-48
2023/10/23 03:04:27;;;;;;;1.33;0.85;;;11.60;99.90;;;11.59;100.00;100763.88;5223349;28;20392;-48
2023/10/23 03:06:59;;;;;;;1.77;1.00;;;11.60;99.90;;;11.59;100.00;100767.34;5223807;28;20246;-48
2023/10/23 03:09:32;;;;;;;1.75;1.00;;;11.60;99.90;;;11.58;100.00;100776.03;5221038;28;20512;-48
2023/10/23 03:12:05;;;;;;;3.30;1.13;;;11.50;99.90;;;11.56;100.00;100766.41;5225090;28;20075;-47
2023/10/23 03:14:39;;;;;;;1.60;1.13;;;11.50;99.90;;;11.54;100.00;100758.53;5221946;28;20102;-48
2023/10/23 03:17:11;;;;;;;1.02;0.93;;;11.50;99.90;;;11.53;100.00;100767.16;5220162;28;20063;-48
2023/10/23 03:19:47;;;;;;;1.50;1.00;;;11.50;99.90;;;11.50;100.00;100767.09;5222044;28;20083;-48
2023/10/23 03:22:19;;;;;;;1.85;1.20;;;11.50;99.90;;;11.43;100.00;100769.47;5216400;28;20053;-47
2023/10/23 03:24:52;;;;;;;1.95;1.33;;;11.40;99.90;;;11.35;100.00;100767.50;5224047;28;20144;-48
2023/10/23 03:27:26;;;;;;;2.10;1.30;;;11.30;99.90;;;11.30;100.00;100770.81;5220121;28;20602;-48
2023/10/23 03:29:59;;;;;;;1.60;1.02;;;11.30;99.90;;;11.25;100.00;100777.59;5224732;28;20040;-47
2023/10/23 03:32:33;;;;;;;1.50;1.10;;;11.20;99.90;;;11.17;100.00;100779.97;5222571;28;20041;-47
2023/10/23 03:35:06;;;;;;;1.45;1.05;;;11.20;99.90;;;11.10;100.00;100778.88;5222727;28;20107;-48
2023/10/23 03:37:38;;;;;;;1.40;1.10;;;11.10;99.90;;;11.05;100.00;100783.06;5229181;28;20050;-48
2023/10/23 03:40:13;;;;;;;1.40;1.13;;;11.10;99.90;;;11.00;100.00;100784.63;5219253;28;20067;-48
2023/10/23 03:42:45;;;;;;;1.75;1.13;;;11.00;99.90;;;10.94;100.00;100788.75;5221394;28;20048;-48
2023/10/23 03:45:19;;;;;;;1.38;1.05;;;11.00;99.90;;;10.90;100.00;100787.78;5224994;28;20041;-47
2023/10/23 03:47:56;;;;;;;0.80;0.80;;;10.90;99.90;;;10.84;100.00;100798.00;5221420;28;20396;-47
2023/10/23 03:50:30;;;;;;;1.33;1.00;;;10.80;99.90;;;10.78;100.00;100789.97;5220260;28;20041;-48
2023/10/23 03:53:02;;;;;;;1.42;1.30;;;10.80;99.90;;;10.74;100.00;100781.16;5222277;28;20072;-48
2023/10/23 03:55:37;;;;;;;0.85;0.85;;;10.80;99.90;;;10.71;100.00;100786.28;5229827;28;20393;-48
2023/10/23 03:58:10;;;;;;;1.50;1.10;;;10.70;99.90;;;10.72;100.00;100789.78;5219709;28;20132;-48
2023/10/23 04:00:44;;;;;;;1.92;1.00;;;10.70;99.90;;;10.70;100.00;100791.44;5229201;28;20057;-47
2023/10/23 04:03:16;;;;;;;1.42;0.98;;;10.70;99.90;;;10.67;100.00;100793.94;5221546;28;20415;-48
2023/10/23 04:05:48;;;;;;;1.45;1.10;;;10.70;99.90;;;10.66;100.00;100797.38;5220384;28;20041;-47
2023/10/23 04:08:21;;;;;;;1.98;1.20;;;10.70;99.90;;;10.60;100.00;100798.94;5221368;28;20072;-48
2023/10/23 04:10:53;;;;;;;2.40;1.10;;;10.60;99.90;;;10.60;100.00;100798.94;5220600;28;20094;-47
2023/10/23 04:13:26;;;;;;;1.90;1.20;;;10.60;99.90;;;10.54;100.00;100797.84;5220666;28;20049;-48
2023/10/23 04:16:02;;;;;;;2.55;1.10;;;10.60;99.90;;;10.50;100.00;100801.19;5221606;28;20045;-49
2023/10/23 04:18:34;;;;;;;0.85;0.82;;;10.50;99.90;;;10.45;100.00;100801.03;5229146;28;20057;-49
2023/10/23 04:21:08;;;;;;;1.30;0.95;;;10.50;99.90;;;10.41;100.00;100801.72;5220958;28;20057;-48
2023/10/23 04:23:41;;;;;;;1.83;1.00;;;10.50;99.90;;;10.37;100.00;100799.88;5227799;28;20088;-49
2023/10/23 04:26:13;;;;;;;1.33;0.95;;;10.40;99.90;;;10.31;100.00;100795.31;5218860;28;20033;-49
2023/10/23 04:28:46;;;;;;;1.67;1.05;;;10.40;99.90;;;10.27;100.00;100795.16;5224334;28;20048;-47
2023/10/23 04:31:20;;;;;;;1.83;1.20;;;10.30;99.90;;;10.21;100.00;100789.69;5221692;28;20057;-48
2023/10/23 04:33:52;;;;;;;1.80;1.10;;;10.30;99.90;;;10.17;100.00;100791.31;5220089;28;20080;-48
2023/10/23 04:36:24;;;;;;;1.27;0.93;;;10.20;99.90;;;10.14;100.00;100790.28;5224489;28;20512;-49
2023/10/23 04:38:57;;;;;;;1.48;1.00;;;10.20;99.90;;;10.10;100.00;100798.81;5223140;28;20530;-48
2023/10/23 04:41:29;;;;;;;2.45;1.20;;;10.20;99.90;;;10.05;100.00;100802.16;5221914;28;20044;-48
2023/10/23 04:44:01;;;;;;;1.30;1.10;;;10.10;99.90;;;10.09;100.00;100802.25;5225342;28;20516;-48
2023/10/23 04:46:35;;;;;;;2.38;1.20;;;10.10;99.90;;;9.98;100.00;100794.94;5216451;28;20057;-48
2023/10/23 04:49:07;;;;;;;1.30;0.90;;;10.00;99.90;;;10.01;100.00;100800.25;5216972;28;20129;-48
2023/10/23 04:51:40;;;;;;;2.17;1.10;;;10.00;99.90;;;9.95;100.00;100789.59;5223988;28;20044;-49
2023/10/23 04:54:12;;;;;;;1.20;1.10;;;10.00;99.90;;;9.92;100.00;100788.63;5220602;28;20424;-48
2023/10/23 04:56:44;;;;;;;1.75;1.23;;;10.00;99.90;;;9.88;100.00;100795.41;5218583;28;20076;-49
2023/10/23 04:59:17;;;;;;;1.40;0.93;;;9.90;99.90;;;9.85;100.00;100797.03;5220856;28;20056;-48
2023/10/23 05:01:51;;;;;;;1.42;1.10;;;9.90;99.90;;;9.81;100.00;100796.03;5225893;28;20060;-48
2023/10/23 05:04:24;;;;;;;1.17;0.95;;;9.80;99.90;;;9.76;100.00;100787.16;5221493;28;20086;-47
2023/10/23 05:06:57;;;;;;;1.40;0.95;;;9.80;99.90;;;9.73;100.00;100798.34;5225021;28;20068;-48
2023/10/23 05:09:29;;;;;;;1.23;1.08;;;9.80;99.90;;;9.70;100.00;100789.50;5226910;28;20053;-48
2023/10/23 05:12:02;;;;;;;1.80;1.25;;;9.80;99.90;;;9.68;100.00;100791.19;5212723;28;20048;-48
2023/10/23 05:14:34;;;;;;;0.80;0.68;;;9.80;99.90;;;9.66;100.00;100790.25;5217220;28;20252;-49
2023/10/23 05:17:08;;;;;;;2.15;1.10;;;9.70;99.90;;;9.61;100.00;100781.38;5218106;28;20056;-47
2023/10/23 05:19:41;;;;;;;1.20;0.93;;;9.70;99.90;;;9.56;100.00;100777.69;5218478;28;20091;-48
2023/10/23 05:22:13;;;;;;;2.50;1.02;;;9.70;99.90;;;9.53;100.00;100783.69;5219339;28;20045;-47
2023/10/23 05:24:46;;;;;;;1.55;1.05;;;9.60;99.90;;;9.49;100.00;100782.66;5220054;28;20049;-47
2023/10/23 05:27:19;;;;;;;2.17;1.50;;;9.60;99.90;;;9.45;100.00;100783.38;5213870;28;20202;-48
2023/10/23 05:29:51;;;;;;;1.30;1.20;;;9.60;99.90;;;9.44;100.00;100781.59;5219767;28;20163;-47
2023/10/23 05:32:25;;;;;;;1.20;1.10;;;9.50;99.90;;;9.40;100.00;100782.31;5219864;28;20041;-47
2023/10/23 05:34:57;;;;;;;1.63;1.00;;;9.50;99.90;;;9.38;100.00;100791.75;5224163;28;20052;-47
2023/10/23 05:37:30;;;;;;;1.58;1.05;;;9.50;99.90;;;9.40;100.00;100784.03;5224926;28;20056;-48
2023/10/23 05:40:04;;;;;;;1.27;0.73;;;9.50;99.90;;;9.39;100.00;100788.34;5220396;28;20041;-48
2023/10/23 05:42:36;;;;;;;1.40;1.02;;;9.40;99.90;;;9.37;100.00;100787.38;5228186;28;20131;-48
2023/10/23 05:45:10;;;;;;;1.40;0.90;;;9.50;99.90;;;9.36;100.00;100793.41;5218372;28;20056;-48
2023/10/23 05:47:44;;;;;;;0.95;0.73;;;9.40;99.90;;;9.39;100.00;100795.22;5222463;28;20056;-47
2023/10/23 05:50:17;;;;;;;1.63;1.20;;;9.40;99.90;;;9.38;100.00;100788.25;5225383;28;20052;-48
2023/10/23 05:52:50;;;;;;;1.35;1.00;;;9.40;99.90;;;9.34;100.00;100787.28;5218162;28;20441;-48
2023/10/23 05:55:23;;;;;;;1.70;1.10;;;9.40;99.90;;;9.31;100.00;100791.44;5227966;28;20052;-47
2023/10/23 05:57:59;;;;;;;1.45;1.13;;;9.40;99.90;;;9.28;100.00;100793.94;5220238;28;20140;-48
2023/10/23 06:00:31;;;;;;;1.92;1.05;;;9.30;99.90;;;9.24;100.00;100798.13;5230113;28;20056;-48
2023/10/23 06:03:05;;;;;;;2.10;0.95;;;9.30;99.90;;;9.21;100.00;100800.63;5229407;28;20052;-47
2023/10/23 06:05:41;;;;;;;1.58;0.95;;;9.30;99.90;;;9.18;100.00;100795.28;5221842;28;20126;-47
2023/10/23 06:08:13;;;;;;;1.45;0.93;;;9.30;99.90;;;9.18;100.00;100795.28;5218192;28;20107;-47
2023/10/23 06:10:46;;;;;;;1.75;1.35;;;9.30;99.90;;;9.20;100.00;100793.66;5231556;28;20049;-47
2023/10/23 06:13:18;;;;;;;1.38;0.85;;;9.30;99.90;;;9.22;100.00;100797.19;5216109;28;20411;-47
2023/10/23 06:15:51;;;;;;;1.35;1.15;;;9.30;99.90;;;9.21;100.00;100790.22;5220040;28;20499;-47
2023/10/23 06:18:26;;;;;;;1.13;0.90;;;9.30;99.90;;;9.22;100.00;100797.19;5232300;28;20051;-47
2023/10/23 06:20:59;;;;;;;2.83;1.30;;;9.30;99.90;;;9.27;100.00;100794.78;5221906;28;20456;-47
2023/10/23 06:23:33;;;;;;;1.90;1.38;;;9.30;99.90;;;9.29;100.00;100799.19;5222448;28;20137;-47
2023/10/23 06:26:09;;;;;;;3.05;1.60;;;9.30;99.90;;;9.36;100.00;100803.81;5222821;28;20366;-47
2023/10/23 06:28:42;;;;;;;4.47;2.33;;;9.40;99.90;;;9.45;100.00;100812.00;5230819;28;20056;-46
2023/10/23 06:31:14;;;;;;;5.13;2.33;;;9.50;99.90;;;9.59;100.00;100809.06;5223044;28;20051;-47
2023/10/23 06:33:48;;;;;;;5.90;2.33;;;9.60;99.90;;;9.68;100.00;100807.69;5217970;28;20049;-47
2023/10/23 06:36:20;;;;;;;7.68;4.20;;;9.70;99.90;;;9.79;100.00;100808.09;5187805;28;20449;-47
2023/10/23 06:38:53;;;;;;;8.95;3.40;;;9.80;99.90;;;9.89;100.00;100809.31;5219169;28;20052;-47
2023/10/23 06:41:25;;;;;;;6.50;3.00;;;9.90;99.90;;;9.98;100.00;100813.19;5215227;28;20045;-47
2023/10/23 06:43:57;;;;;;;8.30;3.58;;;10.00;99.90;;;10.07;100.00;100805.69;5220783;28;20130;-47
2023/10/23 06:46:30;;;;;;;6.47;3.05;;;10.20;99.90;;;10.17;100.00;100806.00;5230078;28;20056;-47
2023/10/23 06:49:03;;;;;;;8.82;3.88;;;10.20;99.90;;;10.20;100.00;100807.03;5221704;28;20045;-47
2023/10/23 06:51:36;;;;;;;10.05;4.05;;;10.30;99.90;;;10.25;100.00;100802.91;5222322;28;20049;-48
2023/10/23 06:54:09;;;;;;;9.73;4.03;;;10.30;99.90;;;10.27;100.00;100803.84;5189838;28;20611;-47
2023/10/23 06:56:41;;;;;;;9.20;4.03;;;10.40;99.90;;;10.31;100.00;100799.66;5216287;28;20041;-47
2023/10/23 06:59:13;;;;;;;7.32;3.33;;;10.40;99.90;;;10.38;100.00;100806.84;5222222;28;20543;-47
2023/10/23 07:01:46;;;;;;;10.13;4.13;;;10.50;99.90;;;10.45;100.00;100811.44;5225351;28;20044;-47
2023/10/23 07:04:19;;;;;;;12.27;4.82;;;10.50;99.90;;;10.51;100.00;100818.59;5219718;28;20045;-47
2023/10/23 07:06:52;;;;;;;10.20;4.47;;;10.60;99.90;;;10.54;100.00;100813.47;5225241;28;20056;-47
2023/10/23 07:09:24;;;;;;;8.85;4.28;;;10.60;99.90;;;10.59;100.00;100811.94;5220205;28;20437;-47
2023/10/23 07:11:56;;;;;;;11.23;4.53;;;10.70;99.90;;;10.60;100.00;100811.97;5228378;28;20420;-47
2023/10/23 07:14:29;;;;;;;7.97;3.15;;;10.70;99.90;;;10.66;100.00;100816.50;5221375;28;20037;-48
2023/10/23 07:17:02;;;;;;;8.55;3.80;;;10.70;99.90;;;10.72;100.00;100813.25;5220592;28;20060;-47
2023/10/23 07:19:35;;;;;;;9.95;4.20;;;10.80;99.90;;;10.80;100.00;100811.78;5224893;28;20064;-47
2023/10/23 07:22:08;;;;;;;9.20;4.43;;;10.80;99.90;;;10.79;100.00;100817.81;5213279;28;20412;-47
2023/10/23 07:24:40;;;;;;;11.10;4.72;;;10.80;99.90;;;10.76;100.00;100820.34;5222606;28;20059;-47
2023/10/23 07:27:15;;;;;;;7.88;3.80;;;10.80;99.90;;;10.94;100.00;100818.34;5218262;28;20501;-45
2023/10/23 07:29:47;;;;;;;7.63;3.70;;;11.00;99.90;;;11.14;100.00;100819.88;5215089;28;20412;-47
2023/10/23 07:32:20;;;;;;;7.85;3.75;;;11.20;99.90;;;11.35;100.00;100821.44;5219397;28;20126;-46
2023/10/23 07:34:54;;;;;;;12.35;5.35;;;11.40;99.90;;;11.48;100.00;100821.00;5222470;28;20071;-47
2023/10/23 07:37:27;;;;;;;9.52;3.85;;;11.50;99.90;;;11.39;100.00;100815.47;5222875;28;20045;-48
2023/10/23 07:39:59;;;;;;;10.07;3.80;;;11.50;99.90;;;11.19;100.00;100808.72;5225762;28;20059;-47
2023/10/23 07:42:32;;;;;;;10.43;4.05;;;11.40;99.90;;;11.12;100.00;100802.41;5226429;28;20086;-46
2023/10/23 07:45:08;;;;;;;11.57;4.15;;;11.30;99.90;;;11.19;100.00;100799.16;5226808;28;20053;-45
2023/10/23 07:47:40;;;;;;;8.90;4.55;;;11.30;99.90;;;11.20;100.00;100798.31;5221506;28;20053;-48
2023/10/23 07:50:14;;;;;;;10.85;4.68;;;11.40;99.90;;;11.28;100.00;100795.94;5202856;28;20041;-49
2023/10/23 07:52:47;;;;;;;11.98;4.63;;;11.50;99.90;;;11.26;100.00;100787.19;5214851;28;20475;-47
2023/10/23 07:55:19;;;;;;;8.88;3.95;;;11.50;99.90;;;11.16;100.00;100787.75;5242881;28;20531;-47
2023/10/23 07:57:51;;;;;;;9.15;4.03;;;11.40;99.90;;;11.07;100.00;100786.59;5229196;28;20053;-47
2023/10/23 08:00:24;;;;;;;7.78;3.20;;;11.30;99.90;;;11.07;100.00;100786.59;5219040;28;20042;-47
2023/10/23 08:02:56;;;;;;;8.40;3.83;;;11.30;99.90;;;11.08;100.00;100795.31;5223538;28;20041;-48
2023/10/23 08:05:30;;;;;;;8.40;3.78;;;11.30;99.90;;;11.09;100.00;100790.16;5222033;28;20064;-48
2023/10/23 08:08:03;;;;;;;7.15;3.33;;;11.30;99.90;;;11.09;100.00;100782.34;5220656;28;20057;-47
2023/10/23 08:10:35;;;;;;;10.35;3.60;;;11.20;99.90;;;11.05;100.00;100788.28;5221820;28;20126;-48
2023/10/23 08:13:08;;;;;;;7.75;3.30;;;11.20;99.90;;;11.05;100.00;100790.91;5219236;28;20037;-48
2023/10/23 08:15:41;;;;;;;9.20;3.50;;;11.20;99.90;;;11.08;100.00;100780.56;5221123;28;20056;-47
2023/10/23 08:18:17;;;;;;;7.20;3.40;;;11.20;99.90;;;11.11;100.00;100782.38;5218440;28;20032;-48
2023/10/23 08:20:51;;;;;;;7.18;3.20;;;11.20;99.90;;;11.11;100.00;100791.09;5212835;28;20076;-48
2023/10/23 08:23:23;;;;;;;7.75;3.60;;;11.20;99.90;;;11.10;100.00;100786.72;5220210;28;20373;-47
2023/10/23 08:25:55;;;;;;;8.95;3.53;;;11.20;99.90;;;11.13;100.00;100796.34;5214285;28;20118;-48
2023/10/23 08:28:28;;;;;;;7.05;3.42;;;11.20;99.90;;;11.14;100.00;100791.19;5214464;28;20552;-47
2023/10/23 08:31:00;;;;;;;8.13;3.28;;;11.20;99.90;;;11.11;100.00;100796.31;5221500;28;20056;-47
2023/10/23 08:33:32;;;;;;;6.70;3.40;;;11.20;99.90;;;11.13;100.00;100793.75;5221359;28;20065;-48
2023/10/23 08:36:06;;;;;;;6.75;3.17;;;11.20;99.90;;;11.19;100.00;100800.88;5224719;28;20440;-48
2023/10/23 08:38:39;;;;;;;4.57;2.80;;;11.30;99.90;;;11.23;100.00;100797.56;5218224;28;20047;-48
2023/10/23 08:41:13;;;;;;;6.13;3.67;;;11.30;99.90;;;11.27;100.00;100799.41;5213272;28;20049;-48
2023/10/23 08:43:45;;;;;;;8.00;3.53;;;11.40;99.90;;;11.47;100.00;100798.31;5214843;28;20446;-47
2023/10/23 08:46:17;;;;;;;8.40;3.63;;;11.50;99.90;;;11.58;100.00;100794.31;5220084;28;20049;-48
2023/10/23 08:48:50;;;;;;;8.43;3.70;;;11.60;99.90;;;11.55;100.00;100786.41;5220324;28;20335;-47
2023/10/23 08:51:25;;;;;;;6.05;3.00;;;11.60;99.90;;;11.59;100.00;100782.13;5217698;28;20132;-47
2023/10/23 08:54:02;;;;;;;;;;;11.60;99.90;;;11.59;100.00;100793.47;5219963;28;20040;-47
2023/10/23 08:56:40;;;;;;;9.25;3.30;;;11.70;99.90;;;11.58;100.00;100786.47;5210306;28;20370;-48
2023/10/23 08:59:14;;;;;;;5.28;2.88;;;11.70;99.90;;;11.65;100.00;100790.16;5228415;28;20049;-47
2023/10/23 09:01:46;;;;;;;6.00;3.15;;;11.70;99.90;;;11.73;100.00;100787.78;5218088;28;20474;-47
2023/10/23 09:04:18;;;;;;;6.18;3.03;;;11.80;99.90;;;11.76;100.00;100783.53;5218966;28;20110;-48
2023/10/23 09:06:55;;;;;;;7.68;3.35;;;11.80;99.90;;;11.78;100.00;100773.13;5220537;28;20056;-48
2023/10/23 09:09:28;;;;;;;7.63;3.13;;;11.80;99.90;;;11.83;100.00;100776.81;5223524;28;20102;-47
2023/10/23 09:12:03;;;;;;;7.30;3.35;;;11.80;99.90;;;11.80;100.00;100766.22;5216184;28;20048;-47
2023/10/23 09:14:36;;;;;;;6.93;3.28;;;11.90;99.90;;;11.80;100.00;100763.59;5220088;28;20132;-47
2023/10/23 09:17:08;;;;;;;6.13;2.95;;;11.90;99.90;;;11.92;100.00;100753.56;5221420;28;20064;-47
2023/10/23 09:19:41;;;;;;;4.35;2.67;;;11.90;99.90;;;12.03;100.00;100759.09;5217796;28;20557;-47
2023/10/23 09:22:15;;;;;;;7.82;3.47;;;12.00;99.90;;;12.09;100.00;100759.28;5221386;28;20055;-47
2023/10/23 09:24:47;;;;;;;7.05;2.70;;;12.10;99.90;;;12.16;100.00;100759.47;5209932;28;20118;-48
2023/10/23 09:27:24;;;;;;;6.53;2.63;;;12.10;99.90;;;12.21;100.00;100757.88;5219299;28;20509;-47
2023/10/23 09:30:02;;;;;;;6.40;3.05;;;12.20;99.90;;;12.26;100.00;100757.09;5219093;28;20076;-48
2023/10/23 09:32:38;;;;;;;5.22;2.63;;;12.20;99.90;;;12.32;100.00;100755.53;5224514;28;20143;-48
2023/10/23 09:35:12;;;;;;;7.80;3.05;;;12.30;99.90;;;12.36;100.00;100746.06;5220867;28;20411;-47
2023/10/23 09:37:46;;;;;;;4.15;2.55;;;12.40;99.90;;;12.42;100.00;100744.50;5220349;28;20052;-47
2023/10/23 09:40:19;;;;;;;5.00;2.50;;;12.40;99.90;;;12.50;100.00;100749.94;5217342;28;20567;-47
2023/10/23 09:42:52;;;;;;;4.75;2.63;;;12.50;99.90;;;12.52;100.00;100744.72;5223821;28;20455;-48
2023/10/23 09:45:25;;;;;;;4.88;2.47;;;12.50;99.90;;;12.55;100.00;100740.47;5217470;28;20033;-48
2023/10/23 09:48:00;;;;;;;8.55;2.72;;;12.50;99.90;;;12.54;100.00;100737.84;5225023;28;20546;-48
2023/10/23 09:50:33;;;;;;;7.55;2.92;;;12.50;99.90;;;12.54;100.00;100749.19;5218985;28;20171;-47
2023/10/23 09:53:10;;;;;;;3.60;2.33;;;12.50;99.90;;;12.57;100.00;100748.34;5218324;28;20102;-47
2023/10/23 09:55:45;;;;;;;3.88;2.00;;;12.50;99.90;;;12.65;100.00;100739.88;5225995;28;20049;-47
2023/10/23 09:58:21;;;;;;;4.53;2.10;;;12.60;99.90;;;12.77;100.00;100754.97;5219023;28;20073;-48
2023/10/23 10:00:55;;;;;;;4.90;2.08;;;12.70;99.90;;;12.82;100.00;100742.91;5217861;28;20053;-48
2023/10/23 10:03:29;;;;;;;4.43;1.95;;;12.80;99.90;;;12.84;100.00;100749.06;5218508;28;20049;-47
2023/10/23 10:06:10;;;;;;;3.90;2.10;;;12.80;99.90;;;12.86;100.00;100747.38;5220086;28;20052;-48
2023/10/23 10:08:51;;;;;;;4.80;1.75;;;12.80;99.90;;;13.00;100.00;100734.63;5220681;28;20052;-47
2023/10/23 10:11:25;;;;;;;4.72;1.95;;;12.90;99.90;;;13.10;100.00;100728.75;5216291;28;20041;-47
2023/10/23 10:13:58;;;;;;;2.85;1.60;;;13.00;99.90;;;13.14;100.00;100725.38;5219993;28;20449;-48
2023/10/23 10:16:35;;;;;;;4.07;1.38;;;13.10;99.90;;;13.27;100.00;100730.06;5220025;28;20403;-47
2023/10/23 10:19:08;;;;;;;4.25;1.45;;;13.20;99.90;;;13.38;100.00;100729.44;5216026;28;20461;-48
2023/10/23 10:21:52;;;;;;;3.58;1.50;;;13.20;99.90;;;13.53;100.00;100714.94;5225819;28;20099;-48
2023/10/23 10:24:27;;;;;;;2.50;1.38;;;13.40;99.90;;;13.63;100.00;100716.03;5218013;28;20056;-47
2023/10/23 10:27:03;;;;;;;3.40;1.52;;;13.50;99.90;;;13.54;100.00;100707.97;5216763;28;20049;-48
2023/10/23 10:29:35;;;;;;;3.47;1.60;;;13.50;99.90;;;13.62;100.00;100705.50;5217711;28;20423;-47
2023/10/23 10:32:10;;;;;;;3.53;1.40;;;13.60;99.90;;;13.69;100.00;100695.22;5220241;28;20297;-48